createdAt,value
2017-04-09T00:00:17.386Z,23.33
2017-04-09T00:01:17.650Z,23.27
2017-04-09T00:02:17.722Z,23.22
2017-04-09T00:03:17.411Z,23.31
2017-04-09T00:04:17.723Z,23.31
2017-04-09T00:05:17.675Z,23.32
2017-04-09T00:06:17.679Z,23.31
2017-04-09T00:07:17.699Z,23.35
2017-04-09T00:08:17.744Z,23.32
2017-04-09T00:09:17.755Z,23.31
2017-04-09T00:10:17.501Z,23.27
2017-04-09T00:11:17.398Z,23.28
2017-04-09T00:12:17.404Z,23.33
2017-04-09T00:13:17.730Z,23.33
2017-04-09T00:14:17.836Z,23.28
2017-04-09T00:15:17.748Z,23.31
2017-04-09T00:16:17.430Z,23.35
2017-04-09T00:17:17.500Z,23.28
2017-04-09T00:18:17.815Z,23.28
2017-04-09T00:19:17.812Z,23.28
2017-04-09T00:20:17.766Z,23.32
2017-04-09T00:21:17.786Z,23.31
2017-04-09T00:22:17.498Z,23.35
2017-04-09T00:23:17.842Z,23.35
2017-04-09T00:24:17.842Z,23.31
2017-04-09T00:25:17.953Z,23.27
2017-04-09T00:26:17.492Z,23.28
2017-04-09T00:27:18.169Z,23.35
2017-04-09T00:28:17.823Z,23.25
2017-04-09T00:29:17.834Z,23.38
2017-04-09T00:30:17.892Z,23.35
2017-04-09T00:31:18.201Z,23.33
2017-04-09T00:32:17.851Z,23.35
2017-04-09T00:33:17.855Z,23.35
2017-04-09T00:34:17.547Z,23.38
2017-04-09T00:35:17.919Z,23.4
2017-04-09T00:36:17.884Z,23.36
2017-04-09T00:37:17.934Z,23.36
2017-04-09T00:38:17.898Z,23.36
2017-04-09T00:39:17.950Z,23.4
2017-04-09T00:40:17.933Z,23.32
2017-04-09T00:41:17.961Z,23.33
2017-04-09T00:42:17.973Z,23.33
2017-04-09T00:43:17.916Z,23.33
2017-04-09T00:44:17.615Z,23.33
2017-04-09T00:45:17.990Z,23.35
2017-04-09T00:46:17.677Z,23.42
2017-04-09T00:47:17.992Z,23.43
2017-04-09T00:48:17.643Z,23.31
2017-04-09T00:49:18.014Z,23.33
2017-04-09T00:50:17.700Z,23.36
2017-04-09T00:51:17.989Z,23.27
2017-04-09T00:52:18.037Z,23.32
2017-04-09T00:53:18.091Z,23.36
2017-04-09T00:54:17.999Z,23.4
2017-04-09T00:55:18.003Z,23.36
2017-04-09T00:56:17.700Z,23.4
2017-04-09T00:57:17.703Z,23.4
2017-04-09T00:58:18.022Z,23.42
2017-04-09T00:59:18.089Z,23.36
2017-04-09T01:00:18.023Z,23.43
2017-04-09T01:01:18.031Z,23.4
2017-04-09T01:02:18.040Z,23.39
2017-04-09T01:03:18.055Z,23.4
2017-04-09T01:04:17.743Z,23.42
2017-04-09T01:05:18.163Z,23.36
2017-04-09T01:06:18.111Z,23.36
2017-04-09T01:07:18.128Z,23.39
2017-04-09T01:08:18.079Z,23.43
2017-04-09T01:09:18.086Z,23.39
2017-04-09T01:10:17.825Z,23.47
2017-04-09T01:11:18.104Z,23.39
2017-04-09T01:12:18.160Z,23.39
2017-04-09T01:13:18.119Z,23.42
2017-04-09T01:14:18.222Z,23.48
2017-04-09T01:15:17.803Z,23.43
2017-04-09T01:16:18.138Z,23.43
2017-04-09T01:17:18.150Z,23.42
2017-04-09T01:18:17.836Z,23.43
2017-04-09T01:19:17.526Z,23.5
2017-04-09T01:20:18.206Z,23.46
2017-04-09T01:21:18.213Z,23.5
2017-04-09T01:22:17.857Z,23.54
2017-04-09T01:23:18.219Z,23.5
2017-04-09T01:24:18.183Z,23.54
2017-04-09T01:25:18.239Z,23.55
2017-04-09T01:26:18.199Z,23.47
2017-04-09T01:27:17.993Z,23.47
2017-04-09T01:28:18.197Z,23.5
2017-04-09T01:29:18.206Z,23.48
2017-04-09T01:30:18.215Z,23.54
2017-04-09T01:31:18.285Z,23.54
2017-04-09T01:32:18.014Z,23.53
2017-04-09T01:33:18.282Z,23.6
2017-04-09T01:34:17.671Z,23.54
2017-04-09T01:35:18.293Z,23.51
2017-04-09T01:36:18.255Z,23.54
2017-04-09T01:37:18.314Z,23.57
2017-04-09T01:38:18.322Z,23.51
2017-04-09T01:39:17.959Z,23.53
2017-04-09T01:40:18.390Z,23.61
2017-04-09T01:41:18.325Z,23.61
2017-04-09T01:42:17.979Z,23.63
2017-04-09T01:43:18.341Z,23.57
2017-04-09T01:44:18.321Z,23.6
2017-04-09T01:45:18.058Z,23.61
2017-04-09T01:46:18.374Z,23.6
2017-04-09T01:47:18.334Z,23.6
2017-04-09T01:48:18.062Z,23.53
2017-04-09T01:49:18.384Z,23.55
2017-04-09T01:50:18.335Z,23.57
2017-04-09T01:51:18.352Z,23.66
2017-04-09T01:52:18.153Z,23.66
2017-04-09T01:53:18.373Z,23.68
2017-04-09T01:54:18.365Z,23.68
2017-04-09T01:55:18.151Z,23.63
2017-04-09T01:56:18.385Z,23.58
2017-04-09T01:57:18.121Z,23.66
2017-04-09T01:58:18.408Z,23.66
2017-04-09T01:59:18.398Z,23.63
2017-04-09T02:00:18.500Z,23.63
2017-04-09T02:01:18.191Z,23.69
2017-04-09T02:02:18.781Z,23.69
2017-04-09T02:03:18.110Z,23.66
2017-04-09T02:04:18.113Z,23.63
2017-04-09T02:05:18.483Z,23.58
2017-04-09T02:06:18.449Z,23.58
2017-04-09T02:07:18.556Z,23.66
2017-04-09T02:08:18.506Z,23.6
2017-04-09T02:09:18.519Z,23.66
2017-04-09T02:10:18.206Z,23.66
2017-04-09T02:11:18.473Z,23.7
2017-04-09T02:12:18.484Z,23.63
2017-04-09T02:13:18.536Z,23.54
2017-04-09T02:14:18.610Z,23.66
2017-04-09T02:15:18.535Z,23.69
2017-04-09T02:16:18.558Z,23.54
2017-04-09T02:17:18.513Z,23.61
2017-04-09T02:18:18.517Z,23.68
2017-04-09T02:19:18.580Z,23.61
2017-04-09T02:20:18.592Z,23.72
2017-04-09T02:21:18.793Z,23.63
2017-04-09T02:22:18.543Z,23.65
2017-04-09T02:23:18.317Z,23.75
2017-04-09T02:24:18.588Z,23.69
2017-04-09T02:25:18.575Z,23.69
2017-04-09T02:26:18.617Z,23.68
2017-04-09T02:27:18.322Z,23.72
2017-04-09T02:28:18.635Z,23.69
2017-04-09T02:29:18.639Z,23.75
2017-04-09T02:30:18.649Z,23.72
2017-04-09T02:31:18.659Z,23.73
2017-04-09T02:32:18.653Z,23.73
2017-04-09T02:33:18.659Z,23.66
2017-04-09T02:34:18.310Z,23.7
2017-04-09T02:35:18.639Z,23.65
2017-04-09T02:36:18.739Z,23.55
2017-04-09T02:37:18.335Z,23.75
2017-04-09T02:38:18.652Z,23.66
2017-04-09T02:39:18.714Z,23.68
2017-04-09T02:40:18.709Z,23.65
2017-04-09T02:41:18.724Z,23.73
2017-04-09T02:42:18.675Z,23.68
2017-04-09T02:43:18.687Z,23.73
2017-04-09T02:44:18.685Z,23.75
2017-04-09T02:45:18.739Z,23.72
2017-04-09T02:46:18.706Z,23.68
2017-04-09T02:47:18.752Z,23.73
2017-04-09T02:48:18.715Z,23.8
2017-04-09T02:49:18.728Z,23.8
2017-04-09T02:50:18.409Z,23.83
2017-04-09T02:51:18.726Z,23.76
2017-04-09T02:52:18.730Z,23.73
2017-04-09T02:53:18.432Z,23.83
2017-04-09T02:54:18.742Z,23.79
2017-04-09T02:55:18.803Z,23.76
2017-04-09T02:56:18.817Z,23.85
2017-04-09T02:57:18.814Z,23.85
2017-04-09T02:58:18.461Z,23.78
2017-04-09T02:59:18.785Z,23.9
2017-04-09T03:00:18.789Z,23.85
2017-04-09T03:01:18.528Z,23.9
2017-04-09T03:02:18.537Z,23.84
2017-04-09T03:03:18.696Z,23.78
2017-04-09T03:04:18.542Z,23.87
2017-04-09T03:05:18.875Z,23.9
2017-04-09T03:06:18.897Z,23.84
2017-04-09T03:07:18.842Z,23.91
2017-04-09T03:08:18.843Z,23.84
2017-04-09T03:09:18.899Z,23.84
2017-04-09T03:10:18.907Z,23.85
2017-04-09T03:11:18.854Z,23.91
2017-04-09T03:12:18.860Z,23.84
2017-04-09T03:13:18.865Z,23.85
2017-04-09T03:14:18.923Z,23.87
2017-04-09T03:15:18.576Z,23.91
2017-04-09T03:16:18.987Z,23.93
2017-04-09T03:17:18.896Z,23.85
2017-04-09T03:18:18.959Z,23.9
2017-04-09T03:19:18.600Z,23.88
2017-04-09T03:20:18.653Z,23.9
2017-04-09T03:21:18.657Z,23.85
2017-04-09T03:22:18.942Z,23.91
2017-04-09T03:23:18.983Z,23.84
2017-04-09T03:24:18.989Z,23.84
2017-04-09T03:25:18.696Z,23.95
2017-04-09T03:26:18.687Z,23.91
2017-04-09T03:27:19.006Z,23.94
2017-04-09T03:28:19.062Z,23.94
2017-04-09T03:29:18.659Z,23.94
2017-04-09T03:30:19.032Z,23.93
2017-04-09T03:31:18.721Z,23.94
2017-04-09T03:32:18.724Z,23.95
2017-04-09T03:33:18.691Z,23.9
2017-04-09T03:34:19.105Z,23.93
2017-04-09T03:35:19.009Z,23.95
2017-04-09T03:36:19.065Z,23.85
2017-04-09T03:37:19.019Z,23.9
2017-04-09T03:38:19.031Z,23.88
2017-04-09T03:39:19.132Z,23.84
2017-04-09T03:40:19.055Z,23.9
2017-04-09T03:41:18.798Z,23.9
2017-04-09T03:42:19.478Z,23.87
2017-04-09T03:43:19.925Z,23.83
2017-04-09T03:44:19.171Z,23.93
2017-04-09T03:45:19.136Z,23.94
2017-04-09T03:46:18.815Z,23.91
2017-04-09T03:47:19.086Z,23.91
2017-04-09T03:48:19.097Z,23.88
2017-04-09T03:49:18.787Z,23.85
2017-04-09T03:50:18.846Z,23.9
2017-04-09T03:51:18.853Z,23.9
2017-04-09T03:52:19.175Z,23.85
2017-04-09T03:53:18.818Z,23.94
2017-04-09T03:54:19.137Z,23.95
2017-04-09T03:55:19.146Z,23.91
2017-04-09T03:56:19.146Z,23.88
2017-04-09T03:57:19.237Z,23.87
2017-04-09T03:58:19.167Z,23.85
2017-04-09T03:59:18.903Z,23.91
2017-04-09T04:00:19.232Z,23.95
2017-04-09T04:01:19.235Z,23.91
2017-04-09T04:02:19.186Z,23.87
2017-04-09T04:03:18.873Z,23.94
2017-04-09T04:04:18.884Z,23.91
2017-04-09T04:05:19.207Z,23.94
2017-04-09T04:06:18.945Z,23.91
2017-04-09T04:07:19.213Z,23.94
2017-04-09T04:08:19.340Z,23.97
2017-04-09T04:09:19.230Z,23.94
2017-04-09T04:10:19.243Z,24.03
2017-04-09T04:11:19.039Z,23.94
2017-04-09T04:12:19.254Z,23.95
2017-04-09T04:13:19.354Z,24.02
2017-04-09T04:14:19.319Z,24.03
2017-04-09T04:15:19.277Z,24
2017-04-09T04:16:19.282Z,24.02
2017-04-09T04:17:19.286Z,24.05
2017-04-09T04:18:18.980Z,24.02
2017-04-09T04:19:19.344Z,23.94
2017-04-09T04:20:19.351Z,24
2017-04-09T04:21:19.365Z,24.03
2017-04-09T04:22:19.371Z,24.02
2017-04-09T04:23:19.015Z,24.03
2017-04-09T04:24:19.057Z,23.98
2017-04-09T04:25:19.342Z,23.98
2017-04-09T04:26:19.028Z,24.08
2017-04-09T04:27:19.398Z,24.1
2017-04-09T04:28:19.403Z,24.12
2017-04-09T04:29:19.056Z,24.06
2017-04-09T04:30:19.410Z,24.05
2017-04-09T04:31:19.064Z,24.02
2017-04-09T04:32:19.474Z,24.06
2017-04-09T04:33:19.071Z,24.02
2017-04-09T04:34:19.401Z,24.08
2017-04-09T04:35:19.402Z,24.1
2017-04-09T04:36:19.462Z,24.03
2017-04-09T04:37:19.104Z,23.97
2017-04-09T04:38:19.421Z,24.05
2017-04-09T04:39:19.163Z,24.03
2017-04-09T04:40:18.855Z,24.03
2017-04-09T04:41:19.440Z,23.97
2017-04-09T04:42:19.446Z,24.13
2017-04-09T04:43:19.505Z,24.12
2017-04-09T04:44:19.464Z,24.03
2017-04-09T04:45:19.155Z,24.03
2017-04-09T04:46:18.896Z,24.06
2017-04-09T04:47:19.525Z,24
2017-04-09T04:48:19.485Z,24.1
2017-04-09T04:49:19.490Z,24.15
2017-04-09T04:50:19.294Z,24.08
2017-04-09T04:51:18.882Z,24.05
2017-04-09T04:52:19.880Z,24.08
2017-04-09T04:53:19.205Z,24.18
2017-04-09T04:54:19.621Z,24.15
2017-04-09T04:55:19.268Z,24.12
2017-04-09T04:56:19.586Z,24.13
2017-04-09T04:57:18.957Z,24.03
2017-04-09T04:58:19.235Z,24.09
2017-04-09T04:59:19.613Z,24.08
2017-04-09T05:00:19.254Z,24.09
2017-04-09T05:01:19.615Z,24.15
2017-04-09T05:02:19.570Z,24.18
2017-04-09T05:03:19.628Z,24.15
2017-04-09T05:04:19.637Z,24.21
2017-04-09T05:05:19.654Z,24.13
2017-04-09T05:06:19.348Z,24.15
2017-04-09T05:07:19.705Z,24.05
2017-04-09T05:08:19.660Z,24.08
2017-04-09T05:09:19.717Z,24.08
2017-04-09T05:10:19.370Z,24.16
2017-04-09T05:11:19.678Z,24.1
2017-04-09T05:12:19.382Z,24.13
2017-04-09T05:13:19.766Z,24.21
2017-04-09T05:14:19.764Z,24.24
2017-04-09T05:15:19.711Z,24.25
2017-04-09T05:16:19.907Z,24.22
2017-04-09T05:17:19.732Z,24.13
2017-04-09T05:18:19.680Z,24.15
2017-04-09T05:19:19.381Z,24.24
2017-04-09T05:20:19.435Z,24.21
2017-04-09T05:21:19.762Z,24.24
2017-04-09T05:22:19.711Z,24.25
2017-04-09T05:23:19.773Z,24.28
2017-04-09T05:24:19.457Z,24.22
2017-04-09T05:25:19.827Z,24.25
2017-04-09T05:26:19.724Z,24.25
2017-04-09T05:27:19.791Z,24.34
2017-04-09T05:28:19.813Z,24.28
2017-04-09T05:29:19.443Z,24.39
2017-04-09T05:30:19.487Z,24.35
2017-04-09T05:31:19.760Z,24.32
2017-04-09T05:32:19.868Z,24.27
2017-04-09T05:33:19.919Z,24.31
2017-04-09T05:34:19.786Z,24.21
2017-04-09T05:35:19.529Z,24.31
2017-04-09T05:36:19.812Z,24.34
2017-04-09T05:37:19.488Z,24.4
2017-04-09T05:38:19.943Z,24.3
2017-04-09T05:39:19.813Z,24.3
2017-04-09T05:40:19.883Z,24.28
2017-04-09T05:41:19.878Z,24.43
2017-04-09T05:42:20.146Z,24.47
2017-04-09T05:43:19.587Z,24.43
2017-04-09T05:44:19.848Z,24.37
2017-04-09T05:45:19.958Z,24.47
2017-04-09T05:46:19.904Z,24.34
2017-04-09T05:47:19.861Z,24.43
2017-04-09T05:48:19.870Z,24.45
2017-04-09T05:49:19.941Z,24.37
2017-04-09T05:50:20.133Z,24.4
2017-04-09T05:51:19.946Z,24.45
2017-04-09T05:52:19.322Z,24.57
2017-04-09T05:53:19.905Z,24.53
2017-04-09T05:54:19.647Z,24.53
2017-04-09T05:55:19.922Z,24.61
2017-04-09T05:56:19.936Z,24.53
2017-04-09T05:57:19.985Z,24.53
2017-04-09T05:58:20.046Z,24.57
2017-04-09T05:59:19.996Z,24.61
2017-04-09T06:00:19.952Z,24.65
2017-04-09T06:01:19.970Z,24.68
2017-04-09T06:02:19.969Z,24.69
2017-04-09T06:03:20.037Z,24.73
2017-04-09T06:04:20.044Z,24.69
2017-04-09T06:05:20.037Z,24.76
2017-04-09T06:06:19.998Z,24.76
2017-04-09T06:07:19.687Z,24.77
2017-04-09T06:08:20.010Z,24.67
2017-04-09T06:09:20.031Z,24.8
2017-04-09T06:10:20.074Z,24.71
2017-04-09T06:11:19.720Z,24.77
2017-04-09T06:12:19.822Z,24.81
2017-04-09T06:13:20.091Z,24.8
2017-04-09T06:14:20.113Z,24.69
2017-04-09T06:15:19.752Z,24.84
2017-04-09T06:16:20.065Z,24.84
2017-04-09T06:17:20.058Z,24.98
2017-04-09T06:18:19.809Z,24.95
2017-04-09T06:19:20.089Z,24.9
2017-04-09T06:20:20.153Z,24.98
2017-04-09T06:21:20.113Z,25
2017-04-09T06:22:20.157Z,25.08
2017-04-09T06:23:20.162Z,25.18
2017-04-09T06:24:20.129Z,25.2
2017-04-09T06:25:20.136Z,25.33
2017-04-09T06:26:20.141Z,25.23
2017-04-09T06:27:19.839Z,25.3
2017-04-09T06:28:20.198Z,25.18
2017-04-09T06:29:20.158Z,25.25
2017-04-09T06:30:20.163Z,25.36
2017-04-09T06:31:20.173Z,25.46
2017-04-09T06:32:19.880Z,25.54
2017-04-09T06:33:20.431Z,25.69
2017-04-09T06:34:20.206Z,25.85
2017-04-09T06:35:20.259Z,26.06
2017-04-09T06:36:20.046Z,26.09
2017-04-09T06:37:19.999Z,26.26
2017-04-09T06:38:20.280Z,26.67
2017-04-09T06:39:19.971Z,26.84
2017-04-09T06:40:20.240Z,27.09
2017-04-09T06:41:19.663Z,27.09
2017-04-09T06:42:20.260Z,27.39
2017-04-09T06:43:20.335Z,27.78
2017-04-09T06:44:20.273Z,27.84
2017-04-09T06:45:20.334Z,28.02
2017-04-09T06:46:20.291Z,28.15
2017-04-09T06:47:20.357Z,28.3
2017-04-09T06:48:19.990Z,28.58
2017-04-09T06:49:20.313Z,28.66
2017-04-09T06:50:20.068Z,28.73
2017-04-09T06:51:20.383Z,29
2017-04-09T06:52:20.397Z,29.06
2017-04-09T06:53:20.402Z,29.18
2017-04-09T06:54:20.098Z,29.21
2017-04-09T06:55:20.151Z,28.81
2017-04-09T06:56:20.371Z,27.85
2017-04-09T06:57:20.390Z,26.76
2017-04-09T06:58:20.406Z,25.97
2017-04-09T06:59:20.082Z,25.69
2017-04-09T07:00:20.508Z,25.5
2017-04-09T07:01:20.424Z,25.42
2017-04-09T07:02:20.483Z,25.35
2017-04-09T07:03:20.435Z,25.24
2017-04-09T07:04:20.540Z,25.23
2017-04-09T07:05:20.178Z,25.17
2017-04-09T07:06:20.507Z,25.1
2017-04-09T07:07:20.509Z,25.08
2017-04-09T07:08:20.468Z,25
2017-04-09T07:09:20.229Z,25.02
2017-04-09T07:10:20.484Z,25
2017-04-09T07:11:20.536Z,24.91
2017-04-09T07:12:20.546Z,24.87
2017-04-09T07:13:20.559Z,24.91
2017-04-09T07:14:20.202Z,24.85
2017-04-09T07:15:20.630Z,24.78
2017-04-09T07:16:20.532Z,24.71
2017-04-09T07:17:20.280Z,24.71
2017-04-09T07:18:20.644Z,24.68
2017-04-09T07:19:20.606Z,24.64
2017-04-09T07:20:20.243Z,24.67
2017-04-09T07:21:20.614Z,24.62
2017-04-09T07:22:20.573Z,24.57
2017-04-09T07:23:20.730Z,24.47
2017-04-09T07:24:20.643Z,24.45
2017-04-09T07:25:20.647Z,24.52
2017-04-09T07:26:20.617Z,24.47
2017-04-09T07:27:20.346Z,24.46
2017-04-09T07:28:20.663Z,24.5
2017-04-09T07:29:20.687Z,24.46
2017-04-09T07:30:20.641Z,24.45
2017-04-09T07:31:22.382Z,24.49
2017-04-09T07:32:20.704Z,24.32
2017-04-09T07:33:20.349Z,24.4
2017-04-09T07:34:20.339Z,24.32
2017-04-09T07:35:20.408Z,24.24
2017-04-09T07:36:20.669Z,24.35
2017-04-09T07:37:20.737Z,24.3
2017-04-09T07:38:20.416Z,24.22
2017-04-09T07:39:20.757Z,24.25
2017-04-09T07:40:20.749Z,24.21
2017-04-09T07:41:20.750Z,24.18
2017-04-09T07:42:20.758Z,24.24
2017-04-09T07:43:20.724Z,24.1
2017-04-09T07:44:20.732Z,24.15
2017-04-09T07:45:20.739Z,24.2
2017-04-09T07:46:20.568Z,24.2
2017-04-09T07:47:20.753Z,24.18
2017-04-09T07:48:20.554Z,24.08
2017-04-09T07:49:21.315Z,24.15
2017-04-09T07:50:20.773Z,24.05
2017-04-09T07:51:20.822Z,24.12
2017-04-09T07:52:20.837Z,24.18
2017-04-09T07:53:20.848Z,24.09
2017-04-09T07:54:20.791Z,24.05
2017-04-09T07:55:20.807Z,24
2017-04-09T07:56:20.500Z,24.05
2017-04-09T07:57:20.813Z,23.98
2017-04-09T07:58:20.834Z,23.97
2017-04-09T07:59:20.835Z,24.03
2017-04-09T08:00:20.846Z,24.05
2017-04-09T08:01:20.841Z,23.98
2017-04-09T08:02:20.584Z,23.97
2017-04-09T08:03:20.902Z,23.98
2017-04-09T08:04:20.888Z,23.95
2017-04-09T08:05:20.979Z,23.95
2017-04-09T08:06:20.873Z,23.95
2017-04-09T08:07:20.940Z,24.03
2017-04-09T08:08:21.028Z,23.91
2017-04-09T08:09:20.639Z,23.95
2017-04-09T08:10:20.689Z,23.95
2017-04-09T08:11:20.958Z,23.88
2017-04-09T08:12:20.919Z,23.9
2017-04-09T08:13:21.032Z,23.93
2017-04-09T08:14:20.926Z,23.84
2017-04-09T08:15:20.995Z,23.88
2017-04-09T08:16:20.943Z,23.88
2017-04-09T08:17:21.002Z,23.87
2017-04-09T08:18:20.687Z,23.78
2017-04-09T08:19:21.012Z,23.8
2017-04-09T08:20:20.977Z,23.76
2017-04-09T08:21:20.667Z,23.88
2017-04-09T08:22:20.769Z,23.84
2017-04-09T08:23:20.734Z,23.78
2017-04-09T08:24:20.680Z,23.85
2017-04-09T08:25:21.057Z,23.87
2017-04-09T08:26:20.692Z,23.84
2017-04-09T08:27:20.704Z,23.83
2017-04-09T08:28:21.084Z,23.79
2017-04-09T08:29:21.032Z,23.8
2017-04-09T08:30:21.050Z,23.75
2017-04-09T08:31:21.099Z,23.8
2017-04-09T08:32:21.111Z,23.83
2017-04-09T08:33:20.845Z,24.2
2017-04-09T08:34:21.065Z,26.28
2017-04-09T08:35:21.096Z,28.59
2017-04-09T08:36:21.092Z,30
2017-04-09T08:37:21.083Z,30.73
2017-04-09T08:38:21.088Z,31.07
2017-04-09T08:39:21.398Z,31.23
2017-04-09T08:40:21.151Z,31.21
2017-04-09T08:41:21.108Z,31.17
2017-04-09T08:42:21.123Z,31.12
2017-04-09T08:43:21.219Z,30.88
2017-04-09T08:44:21.237Z,30.82
2017-04-09T08:45:21.187Z,30.62
2017-04-09T08:46:21.145Z,30.43
2017-04-09T08:47:21.152Z,29.97
2017-04-09T08:48:21.254Z,29
2017-04-09T08:49:20.853Z,27.63
2017-04-09T08:50:21.189Z,26.35
2017-04-09T08:51:21.187Z,25.6
2017-04-09T08:52:21.193Z,25.17
2017-04-09T08:53:20.985Z,24.98
2017-04-09T08:54:21.195Z,24.83
2017-04-09T08:55:20.637Z,24.77
2017-04-09T08:56:20.912Z,24.58
2017-04-09T08:57:21.268Z,24.53
2017-04-09T08:58:21.283Z,24.47
2017-04-09T08:59:22.637Z,24.43
2017-04-09T09:00:21.303Z,24.3
2017-04-09T09:01:20.932Z,24.27
2017-04-09T09:02:21.252Z,24.28
2017-04-09T09:03:21.371Z,24.22
2017-04-09T09:04:21.284Z,24.25
2017-04-09T09:05:20.978Z,24.22
2017-04-09T09:06:21.387Z,24.21
2017-04-09T09:07:21.342Z,24.1
2017-04-09T09:08:21.030Z,24.09
2017-04-09T09:09:21.361Z,24.16
2017-04-09T09:10:21.376Z,24.06
2017-04-09T09:11:21.387Z,24.13
2017-04-09T09:12:21.341Z,24.13
2017-04-09T09:13:21.387Z,24.05
2017-04-09T09:14:21.534Z,24.12
2017-04-09T09:15:21.359Z,24.15
2017-04-09T09:16:21.357Z,23.97
2017-04-09T09:17:21.094Z,24.06
2017-04-09T09:18:21.105Z,24.02
2017-04-09T09:19:21.381Z,24
2017-04-09T09:20:21.135Z,24.03
2017-04-09T09:21:21.395Z,23.94
2017-04-09T09:22:21.747Z,23.98
2017-04-09T09:23:21.403Z,24.02
2017-04-09T09:24:21.148Z,23.94
2017-04-09T09:25:21.482Z,23.98
2017-04-09T09:26:21.169Z,23.91
2017-04-09T09:27:21.442Z,24
2017-04-09T09:28:21.541Z,24
2017-04-09T09:29:21.447Z,23.9
2017-04-09T09:30:21.192Z,23.8
2017-04-09T09:31:21.457Z,23.94
2017-04-09T09:32:21.255Z,23.95
2017-04-09T09:33:21.484Z,23.94
2017-04-09T09:34:21.526Z,23.95
2017-04-09T09:35:21.492Z,23.88
2017-04-09T09:36:21.500Z,23.83
2017-04-09T09:37:21.555Z,23.87
2017-04-09T09:38:21.558Z,23.8
2017-04-09T09:39:21.565Z,23.84
2017-04-09T09:40:21.305Z,23.8
2017-04-09T09:41:21.524Z,23.75
2017-04-09T09:42:21.543Z,23.72
2017-04-09T09:43:21.223Z,23.85
2017-04-09T09:44:21.650Z,23.76
2017-04-09T09:45:21.987Z,23.78
2017-04-09T09:46:21.611Z,23.7
2017-04-09T09:47:21.575Z,23.7
2017-04-09T09:48:21.583Z,23.7
2017-04-09T09:49:21.577Z,23.72
2017-04-09T09:50:21.637Z,23.72
2017-04-09T09:51:21.647Z,23.76
2017-04-09T09:52:21.601Z,23.75
2017-04-09T09:53:21.305Z,23.75
2017-04-09T09:54:21.672Z,23.63
2017-04-09T09:55:21.620Z,23.73
2017-04-09T09:56:21.633Z,23.68
2017-04-09T09:57:21.686Z,23.61
2017-04-09T09:58:21.796Z,23.55
2017-04-09T09:59:21.717Z,23.68
2017-04-09T10:00:21.345Z,23.72
2017-04-09T10:01:21.723Z,23.63
2017-04-09T10:02:21.719Z,23.6
2017-04-09T10:03:21.677Z,23.73
2017-04-09T10:04:21.684Z,23.61
2017-04-09T10:05:21.712Z,23.6
2017-04-09T10:06:21.698Z,23.65
2017-04-09T10:07:21.753Z,23.69
2017-04-09T10:08:21.395Z,23.69
2017-04-09T10:09:21.767Z,23.66
2017-04-09T10:10:21.146Z,23.69
2017-04-09T10:11:21.467Z,23.61
2017-04-09T10:12:21.846Z,23.61
2017-04-09T10:13:21.801Z,23.65
2017-04-09T10:14:22.000Z,23.51
2017-04-09T10:15:21.816Z,23.6
2017-04-09T10:16:21.816Z,23.58
2017-04-09T10:17:21.782Z,23.61
2017-04-09T10:18:21.786Z,23.61
2017-04-09T10:19:21.906Z,23.61
2017-04-09T10:20:21.581Z,23.57
2017-04-09T10:21:21.805Z,23.63
2017-04-09T10:22:21.864Z,23.57
2017-04-09T10:23:21.814Z,23.51
2017-04-09T10:24:21.882Z,23.51
2017-04-09T10:25:21.886Z,23.51
2017-04-09T10:26:21.842Z,23.61
2017-04-09T10:27:21.899Z,23.53
2017-04-09T10:28:21.855Z,23.53
2017-04-09T10:29:21.854Z,23.5
2017-04-09T10:30:21.869Z,23.54
2017-04-09T10:31:21.868Z,23.46
2017-04-09T10:32:21.924Z,23.4
2017-04-09T10:33:21.942Z,23.5
2017-04-09T10:34:21.624Z,23.4
2017-04-09T10:35:21.945Z,23.39
2017-04-09T10:36:21.914Z,23.5
2017-04-09T10:37:21.963Z,23.4
2017-04-09T10:38:21.928Z,23.4
2017-04-09T10:39:21.969Z,23.43
2017-04-09T10:40:21.991Z,23.4
2017-04-09T10:41:21.949Z,23.47
2017-04-09T10:42:22.003Z,23.39
2017-04-09T10:43:21.641Z,23.38
2017-04-09T10:44:22.057Z,23.39
2017-04-09T10:45:22.068Z,23.38
2017-04-09T10:46:22.018Z,23.46
2017-04-09T10:47:22.030Z,23.39
2017-04-09T10:48:21.997Z,23.42
2017-04-09T10:49:21.723Z,23.39
2017-04-09T10:50:22.051Z,23.35
2017-04-09T10:51:22.063Z,23.32
2017-04-09T10:52:22.063Z,23.25
2017-04-09T10:53:21.754Z,23.31
2017-04-09T10:54:22.032Z,23.32
2017-04-09T10:55:21.714Z,23.33
2017-04-09T10:56:22.135Z,23.31
2017-04-09T10:57:21.729Z,23.31
2017-04-09T10:58:22.164Z,23.33
2017-04-09T10:59:22.113Z,23.17
2017-04-09T11:00:22.095Z,23.22
2017-04-09T11:01:22.135Z,23.23
2017-04-09T11:02:21.759Z,23.1
2017-04-09T11:03:22.146Z,23.22
2017-04-09T11:04:22.144Z,23.19
2017-04-09T11:05:22.145Z,23.13
2017-04-09T11:06:22.110Z,23.16
2017-04-09T11:07:22.152Z,23.12
2017-04-09T11:08:22.166Z,23.2
2017-04-09T11:09:22.175Z,23.13
2017-04-09T11:10:22.183Z,23.15
2017-04-09T11:11:22.238Z,23.15
2017-04-09T11:12:22.151Z,23.19
2017-04-09T11:13:22.201Z,23.15
2017-04-09T11:14:22.213Z,23.19
2017-04-09T11:15:22.200Z,23.19
2017-04-09T11:16:22.224Z,23.16
2017-04-09T11:17:22.232Z,23.15
2017-04-09T11:18:22.186Z,23.28
2017-04-09T11:19:22.199Z,23.2
2017-04-09T11:20:21.881Z,23.15
2017-04-09T11:21:22.251Z,23.1
2017-04-09T11:22:22.266Z,23.16
2017-04-09T11:23:22.277Z,23.25
2017-04-09T11:24:22.242Z,23.15
2017-04-09T11:25:22.290Z,23.17
2017-04-09T11:26:21.930Z,23.17
2017-04-09T11:27:22.354Z,23.2
2017-04-09T11:28:22.315Z,23.15
2017-04-09T11:29:21.963Z,23.16
2017-04-09T11:30:22.314Z,23.07
2017-04-09T11:31:22.326Z,23.15
2017-04-09T11:32:22.385Z,23.15
2017-04-09T11:33:22.348Z,23.16
2017-04-09T11:34:21.766Z,23
2017-04-09T11:35:22.350Z,22.97
2017-04-09T11:36:22.365Z,23.02
2017-04-09T11:37:22.103Z,23.02
2017-04-09T11:38:22.063Z,23.07
2017-04-09T11:39:22.938Z,23.05
2017-04-09T11:40:21.706Z,22.97
2017-04-09T11:41:22.336Z,23
2017-04-09T11:42:22.402Z,23.01
2017-04-09T11:43:22.350Z,22.94
2017-04-09T11:44:22.364Z,23.04
2017-04-09T11:45:22.363Z,22.98
2017-04-09T11:46:22.116Z,23
2017-04-09T11:47:22.378Z,23.01
2017-04-09T11:48:22.131Z,23.02
2017-04-09T11:49:22.397Z,23.01
2017-04-09T11:50:22.397Z,23.04
2017-04-09T11:51:22.409Z,22.98
2017-04-09T11:52:23.671Z,23.02
2017-04-09T11:53:22.517Z,23.09
2017-04-09T11:54:22.165Z,23.02
2017-04-09T11:55:22.114Z,22.98
2017-04-09T11:56:22.493Z,23
2017-04-09T11:57:22.448Z,23.02
2017-04-09T11:58:22.507Z,23.05
2017-04-09T11:59:22.511Z,23.04
2017-04-09T12:00:22.199Z,23
2017-04-09T12:01:22.159Z,23
2017-04-09T12:02:22.537Z,22.88
2017-04-09T12:03:22.545Z,22.98
2017-04-09T12:04:22.493Z,22.86
2017-04-09T12:05:22.229Z,22.98
2017-04-09T12:06:22.245Z,22.9
2017-04-09T12:07:22.565Z,22.85
2017-04-09T12:08:22.518Z,22.88
2017-04-09T12:09:22.530Z,22.88
2017-04-09T12:10:22.535Z,22.88
2017-04-09T12:11:22.221Z,22.9
2017-04-09T12:12:22.334Z,22.86
2017-04-09T12:13:22.603Z,22.86
2017-04-09T12:14:22.563Z,22.92
2017-04-09T12:15:22.617Z,22.82
2017-04-09T12:16:22.625Z,22.94
2017-04-09T12:17:22.629Z,22.85
2017-04-09T12:18:22.584Z,22.95
2017-04-09T12:19:22.626Z,22.85
2017-04-09T12:20:22.330Z,22.94
2017-04-09T12:21:22.651Z,22.85
2017-04-09T12:22:22.295Z,22.95
2017-04-09T12:23:22.347Z,22.86
2017-04-09T12:24:22.354Z,22.92
2017-04-09T12:25:22.627Z,22.86
2017-04-09T12:26:22.999Z,22.92
2017-04-09T12:27:22.376Z,22.86
2017-04-09T12:28:22.655Z,22.94
2017-04-09T12:29:22.652Z,22.91
2017-04-09T12:30:22.400Z,22.92
2017-04-09T12:31:23.399Z,22.92
2017-04-09T12:32:22.408Z,22.86
2017-04-09T12:33:23.576Z,22.9
2017-04-09T12:34:22.684Z,22.82
2017-04-09T12:35:22.430Z,22.86
2017-04-09T12:36:22.385Z,22.9
2017-04-09T12:37:22.755Z,22.92
2017-04-09T12:38:22.729Z,22.88
2017-04-09T12:39:22.770Z,22.8
2017-04-09T12:40:22.458Z,22.88
2017-04-09T12:41:22.739Z,22.83
2017-04-09T12:42:22.744Z,22.83
2017-04-09T12:43:22.441Z,22.9
2017-04-09T12:44:22.128Z,22.86
2017-04-09T12:45:22.866Z,22.88
2017-04-09T12:46:22.765Z,22.85
2017-04-09T12:47:22.834Z,22.88
2017-04-09T12:48:22.842Z,22.88
2017-04-09T12:49:22.795Z,22.82
2017-04-09T12:50:22.791Z,22.83
2017-04-09T12:51:22.797Z,22.82
2017-04-09T12:52:22.802Z,22.79
2017-04-09T12:53:22.601Z,22.83
2017-04-09T12:54:22.819Z,22.83
2017-04-09T12:55:22.832Z,22.8
2017-04-09T12:56:22.838Z,22.79
2017-04-09T12:57:22.581Z,22.8